Placita, New Mexico
Current Conditions -  °F | °C
As of 9:15 AM on Saturday 25 Oct 2014 (Local Time) from KSKX Reporting Station
Clear Clear  
Wind Chill: 44°   Ceiling: Unl
Heat Index: 46°   Visibility: 10mi
Dew Point: 25°   Wind: 6mph
Humidity: 43%   Direction: 340°NNW
Pressure: 30.42"   Gusts: NA
Location:  36.1892°N, 105.688°W
Report Text: KSKX 251515Z AUTO 34005KT 10SM CLR 08/M04 A3042 RMK AO1
Loading
Personal Weather Stations






























Interactive Weather Map New forecast layout! Learn more

10-Day Weather Forecast

Advertisements
Track Severe Weather on mobile